createdAt,value
2023-05-23T00:00:58.287Z,100.00
2023-05-23T00:03:28.580Z,100.00
2023-05-23T00:05:55.626Z,100.00
2023-05-23T00:08:22.456Z,100.00
2023-05-23T00:10:49.246Z,100.00
2023-05-23T00:13:15.849Z,100.00
2023-05-23T00:15:42.786Z,100.00
2023-05-23T00:18:10.974Z,100.00
2023-05-23T00:20:38.481Z,100.00
2023-05-23T00:23:05.102Z,100.00
2023-05-23T00:25:31.620Z,100.00
2023-05-23T00:27:58.243Z,100.00
2023-05-23T00:30:25.029Z,100.00
2023-05-23T00:32:53.318Z,100.00
2023-05-23T00:35:23.153Z,100.00
2023-05-23T00:37:50.074Z,100.00
2023-05-23T00:40:17.080Z,100.00
2023-05-23T00:42:43.907Z,100.00
2023-05-23T00:45:11.058Z,100.00
2023-05-23T00:47:38.276Z,100.00
2023-05-23T00:50:06.224Z,100.00
2023-05-23T00:52:33.723Z,100.00
2023-05-23T00:55:00.249Z,100.00
2023-05-23T00:57:26.745Z,100.00
2023-05-23T00:59:53.374Z,100.00
2023-05-23T01:02:20.357Z,100.00
2023-05-23T01:04:50.970Z,100.00
2023-05-23T01:07:17.444Z,100.00
2023-05-23T01:09:44.015Z,100.00
2023-05-23T01:12:14.818Z,100.00
2023-05-23T01:15:05.842Z,100.00
2023-05-23T01:18:10.669Z,100.00
2023-05-23T01:21:01.433Z,100.00
2023-05-23T01:24:04.780Z,100.00
2023-05-23T01:26:41.374Z,100.00
2023-05-23T01:29:15.106Z,100.00
2023-05-23T01:31:46.964Z,100.00
2023-05-23T01:34:14.513Z,100.00
2023-05-23T01:36:43.214Z,100.00
2023-05-23T01:39:09.818Z,100.00
2023-05-23T01:41:36.932Z,100.00
2023-05-23T01:44:04.638Z,100.00
2023-05-23T01:46:32.542Z,100.00
2023-05-23T01:49:00.660Z,100.00
2023-05-23T01:51:27.556Z,100.00
2023-05-23T01:53:54.190Z,100.00
2023-05-23T01:56:21.391Z,100.00
2023-05-23T01:58:48.099Z,100.00
2023-05-23T02:01:15.354Z,100.00
2023-05-23T02:03:42.339Z,100.00
2023-05-23T02:06:08.948Z,100.00
2023-05-23T02:08:35.657Z,100.00
2023-05-23T02:11:02.467Z,100.00
2023-05-23T02:13:29.181Z,100.00
2023-05-23T02:15:56.088Z,100.00
2023-05-23T02:18:23.012Z,100.00
2023-05-23T02:20:49.478Z,100.00
2023-05-23T02:23:16.329Z,100.00
2023-05-23T02:25:43.318Z,100.00
2023-05-23T02:28:13.073Z,100.00
2023-05-23T02:30:39.970Z,100.00
2023-05-23T02:33:07.479Z,100.00
2023-05-23T02:35:34.471Z,100.00
2023-05-23T02:38:01.122Z,100.00
2023-05-23T02:40:27.988Z,100.00
2023-05-23T02:42:54.597Z,100.00
2023-05-23T02:45:21.128Z,100.00
2023-05-23T02:47:47.730Z,100.00
2023-05-23T02:50:14.488Z,100.00
2023-05-23T02:52:41.068Z,100.00
2023-05-23T02:55:08.448Z,100.00
2023-05-23T02:57:35.669Z,100.00
2023-05-23T03:00:02.584Z,100.00
2023-05-23T03:02:29.221Z,100.00
2023-05-23T03:04:56.001Z,100.00
2023-05-23T03:07:28.204Z,100.00
2023-05-23T03:09:55.392Z,100.00
2023-05-23T03:12:22.224Z,100.00
2023-05-23T03:14:49.023Z,100.00
2023-05-23T03:17:15.934Z,100.00
2023-05-23T03:19:43.132Z,100.00
2023-05-23T03:22:09.863Z,100.00
2023-05-23T03:24:36.580Z,100.00
2023-05-23T03:27:03.692Z,100.00
2023-05-23T03:29:30.880Z,100.00
2023-05-23T03:31:57.587Z,100.00
2023-05-23T03:34:24.318Z,100.00
2023-05-23T03:36:51.026Z,100.00
2023-05-23T03:39:17.867Z,100.00
2023-05-23T03:41:44.741Z,100.00
2023-05-23T03:44:11.608Z,100.00
2023-05-23T03:46:39.752Z,100.00
2023-05-23T03:49:07.005Z,100.00
2023-05-23T03:51:35.016Z,100.00
2023-05-23T03:54:01.802Z,100.00
2023-05-23T03:56:28.512Z,100.00
2023-05-23T03:58:55.312Z,100.00
2023-05-23T04:01:22.227Z,100.00
2023-05-23T04:03:49.307Z,100.00
2023-05-23T04:06:16.145Z,100.00
2023-05-23T04:08:42.779Z,100.00
2023-05-23T04:11:09.624Z,100.00
2023-05-23T04:13:36.276Z,100.00
2023-05-23T04:16:03.206Z,100.00
2023-05-23T04:18:33.334Z,100.00
2023-05-23T04:21:00.551Z,100.00
2023-05-23T04:23:27.429Z,100.00
2023-05-23T04:25:54.156Z,100.00
2023-05-23T04:28:21.028Z,100.00
2023-05-23T04:30:47.869Z,100.00
2023-05-23T04:33:14.352Z,100.00
2023-05-23T04:35:41.190Z,100.00
2023-05-23T04:38:08.057Z,100.00
2023-05-23T04:40:34.580Z,100.00
2023-05-23T04:43:01.305Z,100.00
2023-05-23T04:45:27.837Z,100.00
2023-05-23T04:47:54.727Z,100.00
2023-05-23T04:50:21.651Z,100.00
2023-05-23T04:52:48.174Z,100.00
2023-05-23T04:55:14.864Z,100.00
2023-05-23T04:57:41.458Z,100.00
2023-05-23T05:00:08.394Z,100.00
2023-05-23T05:02:35.109Z,100.00
2023-05-23T05:05:01.701Z,100.00
2023-05-23T05:07:28.528Z,100.00
2023-05-23T05:09:55.222Z,100.00
2023-05-23T05:12:21.878Z,100.00
2023-05-23T05:14:48.427Z,100.00
2023-05-23T05:17:14.933Z,100.00
2023-05-23T05:19:41.499Z,100.00
2023-05-23T05:22:08.075Z,100.00
2023-05-23T05:24:34.951Z,100.00
2023-05-23T05:27:01.492Z,100.00
2023-05-23T05:29:28.385Z,100.00
2023-05-23T05:31:54.940Z,100.00
2023-05-23T05:34:21.625Z,100.00
2023-05-23T05:36:48.461Z,100.00
2023-05-23T05:39:15.433Z,100.00
2023-05-23T05:41:41.948Z,100.00
2023-05-23T05:44:09.254Z,100.00
2023-05-23T05:46:36.184Z,100.00
2023-05-23T05:49:03.172Z,100.00
2023-05-23T05:51:29.614Z,100.00
2023-05-23T05:53:56.297Z,100.00
2023-05-23T05:56:23.164Z,100.00
2023-05-23T05:58:49.773Z,100.00
2023-05-23T06:01:16.619Z,100.00
2023-05-23T06:03:43.607Z,100.00
2023-05-23T06:06:10.317Z,100.00
2023-05-23T06:08:36.847Z,100.00
2023-05-23T06:11:03.834Z,100.00
2023-05-23T06:13:30.817Z,100.00
2023-05-23T06:15:57.801Z,100.00
2023-05-23T06:18:24.539Z,100.00
2023-05-23T06:20:51.030Z,100.00
2023-05-23T06:23:18.191Z,100.00
2023-05-23T06:25:44.707Z,100.00
2023-05-23T06:28:11.218Z,100.00
2023-05-23T06:30:38.105Z,100.00
2023-05-23T06:33:05.384Z,100.00
2023-05-23T06:35:32.203Z,100.00
2023-05-23T06:37:58.819Z,100.00
2023-05-23T06:40:25.616Z,100.00
2023-05-23T06:42:52.097Z,100.00
2023-05-23T06:45:20.140Z,100.00
2023-05-23T06:47:46.757Z,100.00
2023-05-23T06:50:13.430Z,100.00
2023-05-23T06:52:40.165Z,100.00
2023-05-23T06:55:07.664Z,100.00
2023-05-23T06:57:34.288Z,100.00
2023-05-23T07:00:00.904Z,100.00
2023-05-23T07:02:28.179Z,100.00
2023-05-23T07:04:54.826Z,100.00
2023-05-23T07:07:21.726Z,100.00
2023-05-23T07:09:48.845Z,100.00
2023-05-23T07:12:18.522Z,100.00
2023-05-23T07:14:45.044Z,100.00
2023-05-23T07:17:11.736Z,100.00
2023-05-23T07:19:38.571Z,100.00
2023-05-23T07:22:05.335Z,100.00
2023-05-23T07:24:31.931Z,100.00
2023-05-23T07:26:58.503Z,100.00
2023-05-23T07:29:25.383Z,100.00
2023-05-23T07:31:52.206Z,100.00
2023-05-23T07:34:20.205Z,100.00
2023-05-23T07:36:46.942Z,100.00
2023-05-23T07:39:13.844Z,100.00
2023-05-23T07:41:41.150Z,100.00
2023-05-23T07:44:07.894Z,100.00
2023-05-23T07:46:34.426Z,100.00
2023-05-23T07:49:04.386Z,100.00
2023-05-23T07:51:31.480Z,100.00
2023-05-23T07:53:58.109Z,100.00
2023-05-23T07:56:25.373Z,100.00
2023-05-23T07:58:52.693Z,100.00
2023-05-23T08:01:19.657Z,100.00
2023-05-23T08:03:49.883Z,100.00
2023-05-23T08:06:16.747Z,100.00
2023-05-23T08:08:43.713Z,100.00
2023-05-23T08:11:10.324Z,100.00
2023-05-23T08:13:36.904Z,100.00
2023-05-23T08:16:03.845Z,100.00
2023-05-23T08:18:31.863Z,100.00
2023-05-23T08:20:58.809Z,100.00
2023-05-23T08:23:25.288Z,100.00
2023-05-23T08:25:54.758Z,100.00
2023-05-23T08:28:21.273Z,100.00
2023-05-23T08:30:47.976Z,100.00
2023-05-23T08:33:14.633Z,100.00
2023-05-23T08:35:41.893Z,100.00
2023-05-23T08:38:11.835Z,100.00
2023-05-23T08:40:41.567Z,100.00
2023-05-23T08:43:10.629Z,100.00
2023-05-23T08:45:37.529Z,100.00
2023-05-23T08:48:08.214Z,100.00
2023-05-23T08:50:39.158Z,100.00
2023-05-23T08:53:06.655Z,100.00
2023-05-23T08:55:33.974Z,100.00
2023-05-23T08:58:01.996Z,100.00
2023-05-23T09:00:28.721Z,100.00
2023-05-23T09:02:55.972Z,100.00
2023-05-23T09:05:23.029Z,100.00
2023-05-23T09:07:50.505Z,100.00
2023-05-23T09:10:19.234Z,100.00
2023-05-23T09:12:46.150Z,100.00
2023-05-23T09:15:13.306Z,100.00
2023-05-23T09:17:40.258Z,100.00
2023-05-23T09:20:15.013Z,100.00
2023-05-23T09:22:46.893Z,100.00
2023-05-23T09:25:14.240Z,100.00
2023-05-23T09:27:42.151Z,100.00
2023-05-23T09:30:11.597Z,100.00
2023-05-23T09:32:38.874Z,100.00
2023-05-23T09:35:08.943Z,100.00
2023-05-23T09:37:45.962Z,100.00
2023-05-23T09:40:14.922Z,100.00
2023-05-23T09:42:43.782Z,100.00
2023-05-23T09:45:12.932Z,100.00
2023-05-23T09:47:41.337Z,100.00
2023-05-23T09:50:09.310Z,100.00
2023-05-23T09:52:39.104Z,100.00
2023-05-23T09:55:06.721Z,100.00
2023-05-23T09:57:40.158Z,100.00
2023-05-23T10:00:08.144Z,100.00
2023-05-23T10:02:37.763Z,100.00
2023-05-23T10:05:07.290Z,100.00
2023-05-23T10:07:35.477Z,100.00
2023-05-23T10:10:06.606Z,100.00
2023-05-23T10:12:36.100Z,100.00
2023-05-23T10:15:05.169Z,100.00
2023-05-23T10:17:40.767Z,100.00
2023-05-23T10:20:11.631Z,100.00
2023-05-23T10:22:39.218Z,100.00
2023-05-23T10:25:07.177Z,100.00
2023-05-23T10:27:34.360Z,100.00
2023-05-23T10:30:01.405Z,100.00
2023-05-23T10:32:37.307Z,100.00
2023-05-23T10:35:25.357Z,100.00
2023-05-23T10:38:17.296Z,100.00
2023-05-23T10:41:25.730Z,100.00
2023-05-23T10:44:12.911Z,100.00
2023-05-23T10:47:00.160Z,100.00
2023-05-23T10:49:43.382Z,100.00
2023-05-23T10:52:13.191Z,100.00
2023-05-23T10:54:49.562Z,100.00
2023-05-23T10:57:18.973Z,100.00
2023-05-23T10:59:46.969Z,100.00
2023-05-23T11:02:15.870Z,100.00
2023-05-23T11:04:43.537Z,100.00
2023-05-23T11:07:32.806Z,100.00
2023-05-23T11:10:11.191Z,100.00
2023-05-23T11:12:40.857Z,100.00
2023-05-23T11:15:19.896Z,100.00
2023-05-23T11:17:52.808Z,100.00
2023-05-23T11:20:20.573Z,100.00
2023-05-23T11:22:54.941Z,100.00
2023-05-23T11:25:21.624Z,100.00
2023-05-23T11:27:50.219Z,100.00
2023-05-23T11:30:18.078Z,100.00
2023-05-23T11:32:52.269Z,100.00
2023-05-23T11:35:19.338Z,100.00
2023-05-23T11:37:46.094Z,100.00
2023-05-23T11:40:27.302Z,100.00
2023-05-23T11:42:54.815Z,100.00
2023-05-23T11:45:22.986Z,100.00
2023-05-23T11:47:49.591Z,100.00
2023-05-23T11:50:17.138Z,100.00
2023-05-23T11:52:46.860Z,100.00
2023-05-23T11:55:14.460Z,100.00
2023-05-23T11:57:41.428Z,100.00
2023-05-23T12:00:09.206Z,100.00
2023-05-23T12:02:44.223Z,100.00
2023-05-23T12:05:12.900Z,100.00
2023-05-23T12:07:42.875Z,100.00
2023-05-23T12:10:11.095Z,100.00
2023-05-23T12:12:38.040Z,100.00
2023-05-23T12:15:06.437Z,100.00
2023-05-23T12:17:35.946Z,100.00
2023-05-23T12:20:03.392Z,100.00
2023-05-23T12:22:31.359Z,100.00
2023-05-23T12:24:58.359Z,100.00
2023-05-23T12:27:29.240Z,100.00
2023-05-23T12:30:13.487Z,100.00
2023-05-23T12:32:44.970Z,100.00
2023-05-23T12:35:13.914Z,100.00
2023-05-23T12:37:42.430Z,100.00
2023-05-23T12:40:17.563Z,100.00
2023-05-23T12:42:51.971Z,100.00
2023-05-23T12:45:23.042Z,100.00
2023-05-23T12:47:52.990Z,100.00
2023-05-23T12:50:20.988Z,100.00
2023-05-23T12:52:47.775Z,100.00
2023-05-23T12:55:14.492Z,100.00
2023-05-23T12:57:41.675Z,100.00
2023-05-23T13:00:09.116Z,100.00
2023-05-23T13:02:35.931Z,100.00
2023-05-23T13:05:02.949Z,96.31
2023-05-23T13:07:29.938Z,99.08
2023-05-23T13:09:57.069Z,97.04
2023-05-23T13:12:37.028Z,96.10
2023-05-23T13:15:05.200Z,96.25
2023-05-23T13:17:31.921Z,99.69
2023-05-23T13:19:58.513Z,99.79
2023-05-23T13:22:25.096Z,99.52
2023-05-23T13:24:51.801Z,95.73
2023-05-23T13:27:19.837Z,98.13
2023-05-23T13:29:46.465Z,100.00
2023-05-23T13:32:13.166Z,100.00
2023-05-23T13:34:39.780Z,98.65
2023-05-23T13:37:08.988Z,95.00
2023-05-23T13:39:35.686Z,93.33
2023-05-23T13:42:02.701Z,93.28
2023-05-23T13:44:29.633Z,96.46
2023-05-23T13:46:58.592Z,96.44
2023-05-23T13:49:25.690Z,95.39
2023-05-23T13:51:52.467Z,98.83
2023-05-23T13:54:19.342Z,100.00
2023-05-23T13:56:45.840Z,100.00
2023-05-23T13:59:12.681Z,100.00
2023-05-23T14:01:39.305Z,100.00
2023-05-23T14:04:07.214Z,100.00
2023-05-23T14:06:34.044Z,100.00
2023-05-23T14:09:00.914Z,100.00
2023-05-23T14:11:27.759Z,100.00
2023-05-23T14:13:54.837Z,100.00
2023-05-23T14:16:22.000Z,100.00
2023-05-23T14:18:49.222Z,100.00
2023-05-23T14:21:17.594Z,100.00
2023-05-23T14:23:44.659Z,100.00
2023-05-23T14:26:13.086Z,100.00
2023-05-23T14:28:40.515Z,100.00
2023-05-23T14:31:07.723Z,100.00
2023-05-23T14:33:35.313Z,100.00
2023-05-23T14:36:02.604Z,100.00
2023-05-23T14:38:29.141Z,100.00
2023-05-23T14:40:56.740Z,100.00
2023-05-23T14:43:23.875Z,100.00
2023-05-23T14:45:50.808Z,100.00
2023-05-23T14:48:18.178Z,100.00
2023-05-23T14:50:45.389Z,100.00
2023-05-23T14:53:12.021Z,100.00
2023-05-23T14:55:38.866Z,100.00
2023-05-23T14:58:05.522Z,100.00
2023-05-23T15:00:32.233Z,100.00
2023-05-23T15:02:58.898Z,100.00
2023-05-23T15:05:25.891Z,100.00
2023-05-23T15:07:53.180Z,100.00
2023-05-23T15:10:22.795Z,100.00
2023-05-23T15:12:49.801Z,100.00
2023-05-23T15:15:16.600Z,100.00
2023-05-23T15:17:43.623Z,100.00
2023-05-23T15:20:11.007Z,100.00
2023-05-23T15:22:39.825Z,100.00
2023-05-23T15:25:08.328Z,100.00
2023-05-23T15:27:37.632Z,100.00
2023-05-23T15:30:04.979Z,100.00
2023-05-23T15:32:31.565Z,100.00
2023-05-23T15:34:58.211Z,100.00
2023-05-23T15:37:25.142Z,100.00
2023-05-23T15:39:52.075Z,100.00
2023-05-23T15:42:18.610Z,100.00
2023-05-23T15:44:45.697Z,100.00
2023-05-23T15:47:12.303Z,100.00
2023-05-23T15:49:39.053Z,100.00
2023-05-23T15:52:05.973Z,100.00
2023-05-23T15:54:32.697Z,100.00
2023-05-23T15:56:59.304Z,100.00
2023-05-23T15:59:26.284Z,100.00
2023-05-23T16:01:53.335Z,100.00
2023-05-23T16:04:19.938Z,100.00
2023-05-23T16:06:46.712Z,100.00
2023-05-23T16:09:13.956Z,100.00
2023-05-23T16:11:41.403Z,100.00
2023-05-23T16:14:07.950Z,100.00
2023-05-23T16:16:37.492Z,100.00
2023-05-23T16:19:04.252Z,100.00
2023-05-23T16:21:31.198Z,100.00
2023-05-23T16:23:57.681Z,100.00
2023-05-23T16:26:24.583Z,100.00
2023-05-23T16:28:51.602Z,100.00
2023-05-23T16:31:18.320Z,100.00
2023-05-23T16:33:45.231Z,99.67
2023-05-23T16:36:12.539Z,100.00
2023-05-23T16:38:39.451Z,100.00
2023-05-23T16:41:06.381Z,100.00
2023-05-23T16:43:33.989Z,100.00
2023-05-23T16:46:01.212Z,100.00
2023-05-23T16:48:27.764Z,100.00
2023-05-23T16:50:54.888Z,100.00
2023-05-23T16:53:22.434Z,100.00
2023-05-23T16:55:49.018Z,100.00
2023-05-23T16:58:18.015Z,100.00
2023-05-23T17:00:45.936Z,100.00
2023-05-23T17:03:12.748Z,100.00
2023-05-23T17:05:39.834Z,100.00
2023-05-23T17:08:06.571Z,100.00
2023-05-23T17:10:34.355Z,100.00
2023-05-23T17:13:01.063Z,100.00
2023-05-23T17:15:27.595Z,100.00
2023-05-23T17:17:54.178Z,100.00
2023-05-23T17:20:20.774Z,100.00
2023-05-23T17:22:47.622Z,100.00
2023-05-23T17:25:14.342Z,100.00
2023-05-23T17:27:41.157Z,100.00
2023-05-23T17:30:08.552Z,100.00
2023-05-23T17:32:35.882Z,100.00
2023-05-23T17:35:02.693Z,100.00
2023-05-23T17:37:29.715Z,100.00
2023-05-23T17:39:57.899Z,100.00
2023-05-23T17:42:27.312Z,100.00
2023-05-23T17:44:54.300Z,100.00
2023-05-23T17:47:23.440Z,100.00
2023-05-23T17:49:50.232Z,100.00
2023-05-23T17:52:17.292Z,100.00
2023-05-23T17:54:44.261Z,100.00
2023-05-23T17:57:11.186Z,100.00
2023-05-23T17:59:38.019Z,100.00
2023-05-23T18:02:05.396Z,100.00
2023-05-23T18:04:32.179Z,100.00
2023-05-23T18:06:59.881Z,100.00
2023-05-23T18:09:27.215Z,100.00
2023-05-23T18:11:57.108Z,100.00
2023-05-23T18:14:24.117Z,100.00
2023-05-23T18:16:51.148Z,100.00
2023-05-23T18:19:20.787Z,100.00
2023-05-23T18:21:47.629Z,100.00
2023-05-23T18:24:14.289Z,100.00
2023-05-23T18:26:41.797Z,100.00
2023-05-23T18:29:09.671Z,100.00
2023-05-23T18:31:36.441Z,100.00
2023-05-23T18:34:04.601Z,100.00
2023-05-23T18:36:31.621Z,100.00
2023-05-23T18:38:58.704Z,100.00
2023-05-23T18:41:25.458Z,100.00
2023-05-23T18:43:52.114Z,100.00
2023-05-23T18:46:19.079Z,100.00
2023-05-23T18:48:45.701Z,100.00
2023-05-23T18:51:12.708Z,100.00
2023-05-23T18:53:42.227Z,100.00
2023-05-23T18:56:09.492Z,100.00
2023-05-23T18:58:36.124Z,100.00
2023-05-23T19:01:04.356Z,100.00
2023-05-23T19:03:31.433Z,100.00
2023-05-23T19:05:58.133Z,100.00
2023-05-23T19:08:24.983Z,100.00
2023-05-23T19:10:51.811Z,100.00
2023-05-23T19:13:20.661Z,100.00
2023-05-23T19:15:48.249Z,100.00
2023-05-23T19:18:14.975Z,100.00
2023-05-23T19:20:41.951Z,100.00
2023-05-23T19:23:08.666Z,100.00
2023-05-23T19:25:35.247Z,100.00
2023-05-23T19:28:02.265Z,100.00
2023-05-23T19:30:28.926Z,100.00
2023-05-23T19:32:55.857Z,100.00
2023-05-23T19:35:22.713Z,100.00
2023-05-23T19:37:49.693Z,100.00
2023-05-23T19:40:16.511Z,100.00
2023-05-23T19:42:43.440Z,100.00
2023-05-23T19:45:10.480Z,100.00
2023-05-23T19:47:37.213Z,100.00
2023-05-23T19:50:04.424Z,100.00
2023-05-23T19:52:32.159Z,100.00
2023-05-23T19:55:01.246Z,100.00
2023-05-23T19:57:30.167Z,100.00
2023-05-23T19:59:56.607Z,100.00
2023-05-23T20:02:23.235Z,100.00
2023-05-23T20:04:49.854Z,100.00
2023-05-23T20:07:16.689Z,100.00
2023-05-23T20:09:43.486Z,100.00
2023-05-23T20:12:12.922Z,100.00
2023-05-23T20:14:39.720Z,100.00
2023-05-23T20:17:06.489Z,100.00
2023-05-23T20:19:33.051Z,100.00
2023-05-23T20:22:00.052Z,100.00
2023-05-23T20:24:26.765Z,100.00
2023-05-23T20:26:53.675Z,100.00
2023-05-23T20:29:20.406Z,100.00
2023-05-23T20:31:46.999Z,100.00
2023-05-23T20:34:13.695Z,100.00
2023-05-23T20:36:40.704Z,100.00
2023-05-23T20:39:09.903Z,100.00
2023-05-23T20:41:36.424Z,100.00
2023-05-23T20:44:03.321Z,100.00
2023-05-23T20:46:29.966Z,100.00
2023-05-23T20:48:56.552Z,100.00
2023-05-23T20:51:23.192Z,100.00
2023-05-23T20:53:52.018Z,100.00
2023-05-23T20:56:18.579Z,100.00
2023-05-23T20:58:45.082Z,100.00
2023-05-23T21:01:13.021Z,100.00
2023-05-23T21:03:41.145Z,100.00
2023-05-23T21:06:08.272Z,100.00
2023-05-23T21:08:35.129Z,100.00
2023-05-23T21:11:01.975Z,100.00
2023-05-23T21:13:28.530Z,100.00
2023-05-23T21:15:55.133Z,100.00
2023-05-23T21:18:21.682Z,100.00
2023-05-23T21:20:48.276Z,100.00
2023-05-23T21:23:15.054Z,100.00
2023-05-23T21:25:41.653Z,100.00
2023-05-23T21:28:08.170Z,100.00
2023-05-23T21:30:35.076Z,100.00
2023-05-23T21:33:03.568Z,100.00
2023-05-23T21:35:30.441Z,100.00
2023-05-23T21:37:57.316Z,100.00
2023-05-23T21:40:24.153Z,100.00
2023-05-23T21:42:50.939Z,100.00
2023-05-23T21:45:17.578Z,100.00
2023-05-23T21:47:45.637Z,100.00
2023-05-23T21:50:12.275Z,100.00
2023-05-23T21:52:39.191Z,100.00
2023-05-23T21:55:06.539Z,100.00
2023-05-23T21:57:33.032Z,100.00
2023-05-23T21:59:59.713Z,100.00
2023-05-23T22:02:26.595Z,100.00
2023-05-23T22:04:53.531Z,100.00
2023-05-23T22:07:20.156Z,100.00
2023-05-23T22:09:47.046Z,100.00
2023-05-23T22:12:13.580Z,100.00
2023-05-23T22:14:40.136Z,100.00
2023-05-23T22:17:06.769Z,100.00
2023-05-23T22:19:33.347Z,100.00
2023-05-23T22:22:00.179Z,100.00
2023-05-23T22:24:26.835Z,100.00
2023-05-23T22:26:53.343Z,100.00
2023-05-23T22:29:19.861Z,100.00
2023-05-23T22:31:48.058Z,100.00
2023-05-23T22:34:14.778Z,100.00
2023-05-23T22:36:41.400Z,100.00
2023-05-23T22:39:08.165Z,100.00
2023-05-23T22:41:34.944Z,100.00
2023-05-23T22:44:02.029Z,100.00
2023-05-23T22:46:28.618Z,100.00
2023-05-23T22:48:55.521Z,100.00
2023-05-23T22:51:22.649Z,100.00
2023-05-23T22:53:49.208Z,100.00
2023-05-23T22:56:16.048Z,100.00
2023-05-23T22:58:42.877Z,100.00
2023-05-23T23:01:09.675Z,100.00
2023-05-23T23:03:36.324Z,100.00
2023-05-23T23:06:03.189Z,100.00
2023-05-23T23:08:29.724Z,100.00
2023-05-23T23:10:56.227Z,100.00
2023-05-23T23:13:23.000Z,100.00
2023-05-23T23:15:49.605Z,100.00
2023-05-23T23:18:16.149Z,100.00
2023-05-23T23:20:42.773Z,100.00
2023-05-23T23:23:10.919Z,100.00
2023-05-23T23:25:37.484Z,100.00
2023-05-23T23:28:04.184Z,100.00
2023-05-23T23:30:30.893Z,100.00
2023-05-23T23:32:57.864Z,100.00
2023-05-23T23:35:24.723Z,100.00
2023-05-23T23:37:51.856Z,100.00
2023-05-23T23:40:18.667Z,100.00
2023-05-23T23:42:45.228Z,100.00
2023-05-23T23:45:11.857Z,100.00
2023-05-23T23:47:38.434Z,100.00
2023-05-23T23:50:05.719Z,100.00
2023-05-23T23:52:32.260Z,100.00
2023-05-23T23:54:58.670Z,100.00
2023-05-23T23:57:25.208Z,100.00
2023-05-23T23:59:51.788Z,100.00
